Time;durP1;ratioP1;P1;durP2;ratioP2;P2;SDS_P1;SDS_P2;PMS_P1;PMS_P2;Temp;Humidity;BMP_temperature;BMP_pressure;BME280_temperature;BME280_humidity;BME280_pressure;Samples;Min_cycle;Max_cycle;Signal;HPM_P1;HPM_P2
2023/12/27 00:00:46;;;;;;;8.77;1.45;;;;;;;2.64;100.00;101825.59;5042758;28;20066;-72
2023/12/27 00:03:11;;;;;;;7.70;1.98;;;;;;;2.61;100.00;101827.78;5051776;28;20040;-72
2023/12/27 00:05:37;;;;;;;10.32;1.13;;;;;;;2.59;100.00;101829.81;5071725;28;20089;-73
2023/12/27 00:08:03;;;;;;;11.60;1.65;;;;;;;2.57;100.00;101826.53;5039868;28;20036;-72
2023/12/27 00:10:30;;;;;;;9.02;1.23;;;;;;;2.57;100.00;101837.09;5052124;28;20052;-73
2023/12/27 00:12:55;;;;;;;9.98;1.77;;;;;;;2.57;100.00;101837.09;5059841;28;20040;-73
2023/12/27 00:15:21;;;;;;;11.25;1.80;;;;;;;2.55;100.00;101839.94;5035716;28;20154;-73
2023/12/27 00:17:47;;;;;;;9.23;1.33;;;;;;;2.58;100.00;101846.69;5072768;28;20028;-72
2023/12/27 00:20:13;;;;;;;10.32;1.63;;;;;;;2.58;100.00;101836.13;5077247;28;20071;-73
2023/12/27 00:22:39;;;;;;;10.00;1.52;;;;;;;2.55;100.00;101837.28;5059124;28;20032;-73
2023/12/27 00:25:05;;;;;;;10.10;1.38;;;;;;;2.46;100.00;101844.53;5015967;28;20089;-72
2023/12/27 00:27:30;;;;;;;10.98;1.85;;;;;;;2.42;100.00;101848.56;5069521;28;20051;-73
2023/12/27 00:29:56;;;;;;;9.52;1.30;;;;;;;2.40;100.00;101855.88;5058842;28;20078;-73
2023/12/27 00:32:22;;;;;;;7.75;1.63;;;;;;;2.38;100.00;101857.88;5043974;28;20195;-74
2023/12/27 00:34:48;;;;;;;9.98;1.23;;;;;;;2.41;100.00;101861.97;5039625;28;20597;-72
2023/12/27 00:37:15;;;;;;;11.23;1.90;;;;;;;2.40;100.00;101866.44;5038302;28;20025;-73
2023/12/27 00:39:44;;;;;;;10.15;1.20;;;;;;;2.39;100.00;101864.00;5056488;28;20424;-72
2023/12/27 00:42:10;;;;;;;9.65;1.40;;;;;;;2.35;100.00;101874.13;5037671;28;20089;-72
2023/12/27 00:44:36;;;;;;;8.43;1.52;;;;;;;2.35;100.00;101883.88;5054097;28;20550;-72
2023/12/27 00:47:02;;;;;;;14.68;1.63;;;;;;;2.38;100.00;101883.50;5055596;28;20049;-74
2023/12/27 00:49:27;;;;;;;7.53;1.20;;;;;;;2.38;100.00;101881.69;5051857;28;20033;-73
2023/12/27 00:51:54;;;;;;;7.18;1.63;;;;;;;2.38;100.00;101894.91;5023052;28;20032;-73
2023/12/27 00:54:20;;;;;;;9.10;2.05;;;;;;;2.41;100.00;101899.81;5042253;28;20047;-73
2023/12/27 00:56:47;;;;;;;7.38;1.30;;;;;;;2.35;100.00;101892.63;5071461;28;20039;-73
2023/12/27 00:59:13;;;;;;;10.50;1.88;;;;;;;2.32;100.00;101890.38;5073972;28;20142;-73
2023/12/27 01:01:38;;;;;;;7.47;1.30;;;;;;;2.29;100.00;101897.84;5024702;28;20045;-73
2023/12/27 01:04:04;;;;;;;8.30;1.13;;;;;;;2.25;100.00;101904.50;5050110;28;20123;-74
2023/12/27 01:06:30;;;;;;;11.98;1.45;;;;;;;2.24;100.00;101914.28;5054058;28;20111;-73
2023/12/27 01:08:55;;;;;;;11.93;1.70;;;;;;;2.26;100.00;101909.59;5060435;28;20051;-73
2023/12/27 01:11:21;;;;;;;5.63;1.55;;;;;;;2.24;100.00;101914.28;5046602;28;20032;-73
2023/12/27 01:13:47;;;;;;;6.80;1.00;;;;;;;2.20;100.00;101907.69;5057844;28;20517;-73
2023/12/27 01:16:14;;;;;;;13.13;1.88;;;;;;;2.20;100.00;101913.00;5071402;28;20043;-73
2023/12/27 01:18:40;;;;;;;9.98;1.45;;;;;;;2.23;100.00;101925.81;5053082;28;20032;-73
2023/12/27 01:21:05;;;;;;;13.40;1.42;;;;;;;2.27;100.00;101924.47;5035535;28;20093;-73
2023/12/27 01:23:32;;;;;;;;;;;;;;;2.29;100.00;101921.63;5029832;28;20035;-73
2023/12/27 01:25:58;;;;;;;10.60;1.20;;;;;;;2.29;100.00;101922.44;5060075;28;21057;-73
2023/12/27 01:28:25;;;;;;;10.88;2.05;;;;;;;2.28;100.00;101930.56;5055288;28;20036;-73
2023/12/27 01:30:50;;;;;;;6.63;1.73;;;;;;;2.24;100.00;101931.97;5040249;28;20099;-73
2023/12/27 01:33:16;;;;;;;7.20;1.77;;;;;;;2.26;100.00;101943.97;5050334;28;20123;-73
2023/12/27 01:35:41;;;;;;;9.98;1.55;;;;;;;2.25;100.00;101939.69;5038396;28;20032;-73
2023/12/27 01:38:07;;;;;;;13.73;1.75;;;;;;;2.21;100.00;101938.41;5025763;28;21051;-73
2023/12/27 01:40:33;;;;;;;13.32;1.77;;;;;;;2.21;100.00;101934.94;5054607;28;20024;-73
2023/12/27 01:42:59;;;;;;;10.20;1.48;;;;;;;2.19;100.00;101949.19;5058357;28;20063;-73
2023/12/27 01:45:24;;;;;;;8.20;1.50;;;;;;;2.16;100.00;101951.34;5072476;28;20068;-73
2023/12/27 01:47:50;;;;;;;12.60;1.65;;;;;;;2.16;100.00;101948.72;5035971;28;20052;-74
2023/12/27 01:50:16;;;;;;;9.43;1.77;;;;;;;2.17;100.00;101945.09;5035383;28;20112;-73
2023/12/27 01:52:42;;;;;;;10.10;1.70;;;;;;;2.23;100.00;101941.69;5062775;28;20040;-73
2023/12/27 01:55:10;;;;;;;10.25;2.10;;;;;;;2.23;100.00;101944.31;5024004;28;20123;-73
2023/12/27 01:57:41;;;;;;;9.88;1.95;;;;;;;2.21;100.00;101946.34;5052122;28;20051;-73
2023/12/27 02:00:08;;;;;;;11.40;1.50;;;;;;;2.17;100.00;101950.38;5056788;28;20028;-73
2023/12/27 02:02:39;;;;;;;10.32;1.30;;;;;;;2.20;100.00;101950.00;5065839;28;20182;-73
2023/12/27 02:05:05;;;;;;;10.25;1.52;;;;;;;2.17;100.00;101951.19;5077336;28;20086;-75
2023/12/27 02:07:31;;;;;;;9.57;1.27;;;;;;;2.11;100.00;101954.56;5040373;28;20047;-73
2023/12/27 02:09:57;;;;;;;;;;;;;;;2.02;100.00;101962.75;5042667;28;20516;-73
2023/12/27 02:12:25;;;;;;;12.02;1.67;;;;;;;2.00;100.00;101970.88;5058636;28;19916;-73
2023/12/27 02:14:51;;;;;;;8.85;1.27;;;;;;;1.93;100.00;101985.81;5057772;28;20044;-73
2023/12/27 02:17:17;;;;;;;9.73;1.50;;;;;;;1.86;100.00;101969.06;5055844;28;20029;-73
2023/12/27 02:19:44;;;;;;;11.05;1.30;;;;;;;1.85;100.00;101962.97;5057627;28;20097;-73
2023/12/27 02:22:15;;;;;;;9.73;1.45;;;;;;;1.86;100.00;101964.59;5059772;28;20036;-73
2023/12/27 02:24:40;;;;;;;8.88;1.15;;;;;;;1.91;100.00;101954.31;5046490;28;20135;-73
2023/12/27 02:27:06;;;;;;;5.03;1.42;;;;;;;1.98;100.00;101961.50;5057769;28;20035;-73
2023/12/27 02:29:31;;;;;;;8.50;1.40;;;;;;;2.01;100.00;101963.75;5072963;28;20035;-72
2023/12/27 02:31:57;;;;;;;8.80;1.20;;;;;;;2.02;100.00;101971.50;5060718;28;20038;-72
2023/12/27 02:34:23;;;;;;;5.70;1.50;;;;;;;2.01;100.00;101961.94;5066116;28;20050;-72
2023/12/27 02:36:49;;;;;;;7.25;1.55;;;;;;;2.01;100.00;101958.47;5062840;28;20174;-72
2023/12/27 02:39:14;;;;;;;4.68;1.27;;;;;;;2.04;100.00;101961.59;5059561;28;20511;-73
2023/12/27 02:41:40;;;;;;;12.55;1.48;;;;;;;2.05;100.00;101962.41;5061401;28;20522;-72
2023/12/27 02:44:06;;;;;;;9.68;1.38;;;;;;;2.09;100.00;101967.13;5051685;28;20055;-72
2023/12/27 02:46:33;;;;;;;6.10;1.58;;;;;;;2.07;100.00;101960.41;5062159;28;20043;-71
2023/12/27 02:48:59;;;;;;;7.60;1.40;;;;;;;2.05;100.00;101970.34;5032355;28;20127;-72
2023/12/27 02:51:25;;;;;;;7.25;1.38;;;;;;;2.00;100.00;101972.69;5070199;28;20124;-72
2023/12/27 02:53:50;;;;;;;10.23;1.45;;;;;;;2.01;100.00;101969.06;5056559;28;20033;-72
2023/12/27 02:56:17;;;;;;;5.80;1.35;;;;;;;2.02;100.00;101975.97;5043815;28;20032;-72
2023/12/27 02:58:43;;;;;;;9.75;1.45;;;;;;;1.97;100.00;101970.44;5046811;28;20089;-71
2023/12/27 03:01:09;;;;;;;5.32;0.90;;;;;;;1.95;100.00;101967.13;5061773;28;20036;-72
2023/12/27 03:03:34;;;;;;;10.80;1.48;;;;;;;1.94;100.00;101981.34;5062759;28;20079;-72
2023/12/27 03:06:00;;;;;;;4.80;1.52;;;;;;;1.88;100.00;101973.16;5058522;28;20044;-72
2023/12/27 03:08:26;;;;;;;8.38;1.90;;;;;;;1.84;100.00;101971.88;5056359;28;20043;-73
2023/12/27 03:10:51;;;;;;;5.13;0.90;;;;;;;1.83;100.00;101975.53;5043221;28;20576;-72
2023/12/27 03:13:17;;;;;;;9.32;1.52;;;;;;;1.78;100.00;101977.88;5077123;28;20055;-73
2023/12/27 03:15:43;;;;;;;5.80;1.50;;;;;;;1.73;100.00;101976.78;5080511;28;20035;-73
2023/12/27 03:18:09;;;;;;;5.85;1.20;;;;;;;1.68;100.00;101976.50;5045319;28;20028;-73
2023/12/27 03:20:35;;;;;;;8.15;1.45;;;;;;;1.63;100.00;101974.44;5042146;28;20028;-72
2023/12/27 03:23:01;;;;;;;9.90;1.42;;;;;;;1.57;100.00;101967.22;5050205;28;20040;-73
2023/12/27 03:25:26;;;;;;;6.10;1.30;;;;;;;1.52;100.00;101972.22;5031836;28;20107;-73
2023/12/27 03:27:52;;;;;;;9.32;1.58;;;;;;;1.47;100.00;101967.47;5046447;28;20497;-72
2023/12/27 03:30:17;;;;;;;11.63;1.45;;;;;;;1.44;100.00;101965.19;5060474;28;20067;-72
2023/12/27 03:32:43;;;;;;;7.72;1.30;;;;;;;1.42;100.00;101971.63;5061190;28;20034;-72
2023/12/27 03:35:09;;;;;;;9.98;1.40;;;;;;;1.43;100.00;101962.75;5061051;28;20051;-73
2023/12/27 03:37:36;;;;;;;12.25;1.23;;;;;;;1.41;100.00;101970.00;5065562;28;20040;-72
2023/12/27 03:40:02;;;;;;;13.35;1.77;;;;;;;1.39;100.00;101972.00;5066616;28;20036;-73
2023/12/27 03:42:28;;;;;;;9.23;1.60;;;;;;;1.38;100.00;101973.81;5066973;28;20105;-73
2023/12/27 03:44:54;;;;;;;5.28;1.15;;;;;;;1.36;100.00;101974.00;5058282;28;20118;-72
2023/12/27 03:47:20;;;;;;;9.73;1.85;;;;;;;1.36;100.00;101968.72;5059511;28;20088;-73
2023/12/27 03:49:46;;;;;;;8.82;1.25;;;;;;;1.36;100.00;101975.84;5080341;28;20036;-72
2023/12/27 03:52:12;;;;;;;9.15;1.60;;;;;;;1.41;100.00;101984.00;5065347;28;20087;-73
2023/12/27 03:54:38;;;;;;;8.18;1.35;;;;;;;1.43;100.00;101983.84;5049943;28;20661;-72
2023/12/27 03:57:04;;;;;;;;;;;;;;;1.40;100.00;101990.28;5061446;28;20065;-72
2023/12/27 03:59:29;;;;;;;12.20;1.83;;;;;;;1.36;100.00;101984.56;5057980;28;19912;-72
2023/12/27 04:01:55;;;;;;;9.48;1.45;;;;;;;1.34;100.00;101993.66;5054742;28;20405;-72
2023/12/27 04:04:21;;;;;;;11.18;1.70;;;;;;;1.30;100.00;101987.09;5061694;28;20039;-72
2023/12/27 04:06:46;;;;;;;6.03;1.42;;;;;;;1.27;100.00;101995.34;5079190;28;20032;-73
2023/12/27 04:09:12;;;;;;;7.88;1.20;;;;;;;1.24;100.00;101993.91;5059707;28;20097;-73
2023/12/27 04:11:45;;;;;;;11.55;1.88;;;;;;;1.25;100.00;101992.06;5031921;28;20485;-73
2023/12/27 04:14:14;;;;;;;7.10;1.60;;;;;;;1.23;100.00;101988.81;5064152;28;20485;-73
2023/12/27 04:16:40;;;;;;;10.32;2.10;;;;;;;1.20;100.00;101989.16;5077287;28;20036;-72
2023/12/27 04:19:06;;;;;;;8.75;1.85;;;;;;;1.20;100.00;101995.25;5027139;28;20042;-72
2023/12/27 04:21:31;;;;;;;8.05;2.22;;;;;;;1.23;100.00;101988.81;5056328;28;20049;-73
2023/12/27 04:23:57;;;;;;;11.23;1.55;;;;;;;1.25;100.00;101987.63;5057676;28;20493;-72
2023/12/27 04:26:23;;;;;;;9.50;1.58;;;;;;;1.26;100.00;101997.19;5046861;28;20085;-72
2023/12/27 04:28:48;;;;;;;7.60;1.30;;;;;;;1.24;100.00;101988.63;5063579;28;20510;-72
2023/12/27 04:31:14;;;;;;;13.73;1.67;;;;;;;1.23;100.00;101984.34;5057916;28;20509;-72
2023/12/27 04:33:40;;;;;;;9.68;1.40;;;;;;;1.21;100.00;101975.75;5058263;28;20035;-72
2023/12/27 04:36:06;;;;;;;4.65;1.20;;;;;;;1.21;100.00;101973.13;5056835;28;20035;-72
2023/12/27 04:38:32;;;;;;;7.95;1.33;;;;;;;1.20;100.00;101979.41;5026982;28;20036;-73
2023/12/27 04:40:58;;;;;;;12.20;1.42;;;;;;;1.18;100.00;101968.22;5060234;28;20351;-73
2023/12/27 04:43:24;;;;;;;6.30;1.73;;;;;;;1.19;100.00;101969.84;5056605;28;20098;-72
2023/12/27 04:45:53;;;;;;;6.18;1.63;;;;;;;1.20;100.00;101978.59;5058730;28;20039;-72
2023/12/27 04:48:19;;;;;;;8.73;1.58;;;;;;;1.21;100.00;101980.22;5076065;28;20047;-72
2023/12/27 04:50:45;;;;;;;11.13;1.55;;;;;;;1.27;100.00;101992.72;5050705;28;20032;-72
2023/12/27 04:53:10;;;;;;;6.47;1.20;;;;;;;1.32;100.00;101999.09;5062627;28;20039;-72
2023/12/27 04:55:37;;;;;;;8.50;1.63;;;;;;;1.38;100.00;101991.47;5060156;28;20028;-72
2023/12/27 04:58:04;;;;;;;6.55;1.15;;;;;;;1.39;100.00;101993.13;5039262;28;20048;-72
2023/12/27 05:00:30;;;;;;;8.10;1.77;;;;;;;1.36;100.00;102003.03;5055593;28;20028;-72
2023/12/27 05:02:56;;;;;;;7.03;1.20;;;;;;;1.36;100.00;102007.50;5060298;28;20044;-72
2023/12/27 05:05:21;;;;;;;6.05;1.40;;;;;;;1.32;100.00;102006.22;5044749;28;20044;-72
2023/12/27 05:07:47;;;;;;;6.82;1.23;;;;;;;1.29;100.00;102007.41;5058368;28;20519;-72
2023/12/27 05:10:13;;;;;;;9.48;1.23;;;;;;;1.27;100.00;102016.47;5042472;28;20035;-73
2023/12/27 05:12:38;;;;;;;5.10;1.55;;;;;;;1.22;100.00;102022.28;5057489;28;20496;-72
2023/12/27 05:15:05;;;;;;;8.82;1.23;;;;;;;1.21;100.00;102027.72;5041728;28;20512;-72
2023/12/27 05:17:31;;;;;;;6.15;1.10;;;;;;;1.21;100.00;102031.19;5042903;28;20129;-72
2023/12/27 05:19:56;;;;;;;7.40;1.17;;;;;;;1.21;100.00;102030.38;5080818;28;20043;-72
2023/12/27 05:22:22;;;;;;;5.03;1.35;;;;;;;1.23;100.00;102034.50;5052550;28;20131;-72
2023/12/27 05:24:47;;;;;;;2.58;0.80;;;;;;;1.25;100.00;102043.03;5076289;28;20027;-72
2023/12/27 05:27:13;;;;;;;4.47;1.02;;;;;;;1.26;100.00;102039.41;5049276;28;20111;-72
2023/12/27 05:29:39;;;;;;;4.60;1.20;;;;;;;1.29;100.00;102035.59;5046438;28;20114;-72
2023/12/27 05:32:06;;;;;;;9.73;1.20;;;;;;;1.30;100.00;102038.06;5102799;22;20052;-72
2023/12/27 05:34:32;;;;;;;7.78;1.40;;;;;;;1.32;100.00;102036.06;5085996;28;20316;-74
2023/12/27 05:36:57;;;;;;;11.70;1.20;;;;;;;1.37;100.00;102043.47;5061965;28;20047;-72
2023/12/27 05:39:23;;;;;;;5.13;1.23;;;;;;;1.41;100.00;102034.16;5070709;28;20051;-73
2023/12/27 05:41:48;;;;;;;8.00;1.73;;;;;;;1.46;100.00;102028.38;5068153;28;20036;-72
2023/12/27 05:44:14;;;;;;;11.88;1.92;;;;;;;1.51;100.00;102028.66;5067797;28;20093;-74
2023/12/27 05:46:40;;;;;;;6.30;1.85;;;;;;;1.56;100.00;102047.44;5067420;28;20093;-71
2023/12/27 05:49:06;;;;;;;9.43;1.67;;;;;;;1.58;100.00;102048.06;5073142;28;20047;-74
2023/12/27 05:51:33;;;;;;;10.30;2.22;;;;;;;1.57;100.00;102049.88;5067224;28;20042;-73
2023/12/27 05:53:58;;;;;;;6.57;1.80;;;;;;;1.55;100.00;102040.50;5065419;28;20103;-73
2023/12/27 05:56:24;;;;;;;9.20;1.63;;;;;;;1.55;100.00;102040.50;5044310;28;20473;-73
2023/12/27 05:58:50;;;;;;;10.15;2.25;;;;;;;1.54;100.00;102049.41;5056634;28;20130;-73
2023/12/27 06:01:17;;;;;;;6.28;2.00;;;;;;;1.53;100.00;102045.13;5049666;28;20117;-72
2023/12/27 06:03:43;;;;;;;6.82;2.05;;;;;;;1.52;100.00;102051.41;5055763;28;20056;-71
2023/12/27 06:06:09;;;;;;;10.55;1.50;;;;;;;1.53;100.00;102042.50;5062753;28;20027;-73
2023/12/27 06:08:34;;;;;;;8.10;1.90;;;;;;;1.53;100.00;102053.06;5046900;28;20501;-72
2023/12/27 06:11:00;;;;;;;5.22;1.30;;;;;;;1.51;100.00;102045.31;5085159;28;20412;-74
2023/12/27 06:13:26;;;;;;;8.55;2.20;;;;;;;1.53;100.00;102047.78;5076344;28;20028;-72
2023/12/27 06:15:52;;;;;;;7.30;1.65;;;;;;;1.53;100.00;102043.31;5066915;28;20393;-74
2023/12/27 06:18:18;;;;;;;8.38;1.63;;;;;;;1.57;100.00;102035.88;5091665;28;20036;-73
2023/12/27 06:20:44;;;;;;;9.30;2.10;;;;;;;1.57;100.00;102054.34;5052701;28;20032;-74
2023/12/27 06:23:09;;;;;;;8.15;1.45;;;;;;;1.56;100.00;102053.53;5069931;28;20035;-73
2023/12/27 06:25:35;;;;;;;5.00;1.80;;;;;;;1.58;100.00;102042.78;5073986;28;20040;-73
2023/12/27 06:28:01;;;;;;;6.97;1.60;;;;;;;1.60;100.00;102048.69;5062073;28;20097;-73
2023/12/27 06:30:27;;;;;;;;;;;;;;;1.60;100.00;102048.69;5050400;28;20120;-73
2023/12/27 06:32:53;;;;;;;9.02;1.35;;;;;;;1.60;100.00;102051.34;5081799;28;20089;-73
2023/12/27 06:35:19;;;;;;;9.77;1.95;;;;;;;1.61;100.00;102056.44;5076922;28;20758;-74
2023/12/27 06:37:45;;;;;;;7.47;1.98;;;;;;;1.64;100.00;102057.91;5060359;28;20058;-72
2023/12/27 06:40:11;;;;;;;2.40;1.08;;;;;;;1.67;100.00;102059.38;5064539;28;20064;-72
2023/12/27 06:42:37;;;;;;;5.63;1.88;;;;;;;1.68;100.00;102063.66;5054947;28;20031;-75
2023/12/27 06:45:03;;;;;;;6.30;1.52;;;;;;;1.67;100.00;102049.63;5068754;28;20036;-73
2023/12/27 06:47:30;;;;;;;6.28;1.83;;;;;;;1.71;100.00;102050.94;5044865;28;20036;-74
2023/12/27 06:49:55;;;;;;;5.45;1.48;;;;;;;1.74;100.00;102063.75;5070815;28;20400;-73
2023/12/27 06:52:21;;;;;;;6.07;1.30;;;;;;;1.78;100.00;102066.88;5083599;28;20528;-72
2023/12/27 06:54:47;;;;;;;6.05;1.60;;;;;;;1.75;100.00;102057.47;5084281;28;20028;-72
2023/12/27 06:57:13;;;;;;;9.70;1.50;;;;;;;1.75;100.00;102054.84;5050515;28;20035;-72
2023/12/27 06:59:39;;;;;;;6.22;1.90;;;;;;;1.76;100.00;102053.84;5067895;28;20068;-74
2023/12/27 07:02:07;;;;;;;9.05;1.50;;;;;;;1.77;100.00;102054.69;5062777;28;20032;-71
2023/12/27 07:04:35;;;;;;;5.50;1.75;;;;;;;1.77;100.00;102054.69;5062842;28;20032;-74
2023/12/27 07:07:00;;;;;;;7.70;1.60;;;;;;;1.78;100.00;102057.13;5070128;28;20027;-73
2023/12/27 07:09:26;;;;;;;6.38;1.20;;;;;;;1.79;100.00;102064.06;5084211;28;20059;-74
2023/12/27 07:11:52;;;;;;;7.90;1.48;;;;;;;1.80;100.00;102052.47;5068954;28;20040;-74
2023/12/27 07:14:17;;;;;;;6.70;2.05;;;;;;;1.80;100.00;102043.75;5054667;28;20032;-75
2023/12/27 07:16:44;;;;;;;10.50;1.80;;;;;;;1.79;100.00;102037.63;5065322;28;20117;-74
2023/12/27 07:19:09;;;;;;;7.20;1.38;;;;;;;1.80;100.00;102044.56;5051232;28;20036;-72
2023/12/27 07:21:35;;;;;;;6.00;1.52;;;;;;;1.82;100.00;102047.84;5059267;28;20031;-73
2023/12/27 07:24:01;;;;;;;5.22;1.17;;;;;;;1.85;100.00;102052.78;5066119;28;20066;-76
2023/12/27 07:26:27;;;;;;;6.38;1.60;;;;;;;1.86;100.00;102059.69;5051416;28;20071;-73
2023/12/27 07:28:53;;;;;;;7.93;1.40;;;;;;;1.84;100.00;102051.13;5044911;28;20592;-73
2023/12/27 07:31:19;;;;;;;6.57;1.88;;;;;;;1.83;100.00;102054.78;5049373;28;20462;-74
2023/12/27 07:33:44;;;;;;;12.18;1.80;;;;;;;1.80;100.00;102055.13;5067097;28;20115;-75
2023/12/27 07:36:10;;;;;;;11.00;1.70;;;;;;;1.82;100.00;102058.41;5053197;28;20727;-72
2023/12/27 07:38:35;;;;;;;7.45;2.03;;;;;;;1.81;100.00;102059.41;5032946;28;20031;-75
2023/12/27 07:41:01;;;;;;;12.65;1.63;;;;;;;1.79;100.00;102071.97;5082886;28;20043;-74
2023/12/27 07:43:27;;;;;;;8.32;1.55;;;;;;;1.79;100.00;102074.63;5082386;28;20031;-74
2023/12/27 07:45:53;;;;;;;12.27;2.28;;;;;;;1.76;100.00;102069.72;5070606;28;20575;-72
2023/12/27 07:48:19;;;;;;;8.40;1.58;;;;;;;1.73;100.00;102070.03;5069062;28;20040;-72
2023/12/27 07:50:46;;;;;;;5.10;1.80;;;;;;;1.70;100.00;102073.06;5071692;28;20038;-74
2023/12/27 07:53:11;;;;;;;8.48;1.50;;;;;;;1.69;100.00;102066.09;5085677;28;20597;-74
2023/12/27 07:55:37;;;;;;;5.68;1.52;;;;;;;1.65;100.00;102062.19;5046375;28;20101;-73
2023/12/27 07:58:04;;;;;;;6.43;1.50;;;;;;;1.61;100.00;102067.00;5060751;28;20040;-74
2023/12/27 08:00:31;;;;;;;7.05;1.50;;;;;;;1.51;100.00;102052.41;5070490;28;20504;-73
2023/12/27 08:02:58;;;;;;;6.47;1.20;;;;;;;1.49;100.00;102057.03;5067398;28;20081;-74
2023/12/27 08:05:24;;;;;;;4.50;1.33;;;;;;;1.45;100.00;102061.03;5067811;28;20548;-73
2023/12/27 08:07:50;;;;;;;7.38;1.85;;;;;;;1.44;100.00;102064.69;5048736;28;20050;-74
2023/12/27 08:10:17;;;;;;;8.23;1.55;;;;;;;1.38;100.00;102055.66;5070124;28;20036;-73
2023/12/27 08:12:45;;;;;;;4.45;1.85;;;;;;;1.39;100.00;102053.84;5063164;28;20107;-73
2023/12/27 08:15:11;;;;;;;8.45;1.70;;;;;;;1.39;100.00;102059.09;5053921;28;20047;-75
2023/12/27 08:17:37;;;;;;;6.45;1.90;;;;;;;1.36;100.00;102062.94;5055619;28;20040;-72
2023/12/27 08:20:04;;;;;;;6.00;1.33;;;;;;;1.33;100.00;102058.00;5036524;28;20123;-75
2023/12/27 08:22:31;;;;;;;6.50;1.42;;;;;;;1.30;100.00;102066.28;5047207;28;20040;-74
2023/12/27 08:24:56;;;;;;;6.93;1.67;;;;;;;1.29;100.00;102067.28;5052770;28;20032;-75
2023/12/27 08:27:22;;;;;;;5.93;1.23;;;;;;;1.27;100.00;102075.34;5050558;28;20465;-73
2023/12/27 08:29:48;;;;;;;4.97;1.88;;;;;;;1.28;100.00;102079.63;5065829;28;20027;-71
2023/12/27 08:32:16;;;;;;;5.53;1.70;;;;;;;1.27;100.00;102079.81;5065866;28;20122;-72
2023/12/27 08:34:42;;;;;;;6.47;1.70;;;;;;;1.28;100.00;102068.25;5070821;28;20028;-72
2023/12/27 08:37:07;;;;;;;7.78;1.92;;;;;;;1.29;100.00;102076.00;5045730;28;20096;-72
2023/12/27 08:39:33;;;;;;;5.28;2.08;;;;;;;1.30;100.00;102074.19;5069791;28;20043;-72
2023/12/27 08:41:59;;;;;;;7.88;3.17;;;;;;;1.29;100.00;102072.56;5048594;28;20050;-71
2023/12/27 08:44:25;;;;;;;;;;;;;;;1.34;100.00;102086.84;5051335;28;20139;-73
2023/12/27 08:46:52;;;;;;;8.48;2.13;;;;;;;1.37;100.00;102077.78;5059892;28;20006;-73
2023/12/27 08:49:17;;;;;;;7.35;1.83;;;;;;;1.39;100.00;102082.88;5027256;28;20041;-74
2023/12/27 08:51:43;;;;;;;12.73;2.42;;;;;;;1.40;100.00;102081.88;5079249;28;20085;-72
2023/12/27 08:54:09;;;;;;;10.95;2.05;;;;;;;1.46;100.00;102086.44;5045170;28;20504;-74
2023/12/27 08:56:34;;;;;;;10.40;2.30;;;;;;;1.48;100.00;102081.81;5059270;28;20035;-75
2023/12/27 08:59:01;;;;;;;6.68;1.90;;;;;;;1.53;100.00;102074.19;5070727;28;20111;-73
2023/12/27 09:01:28;;;;;;;13.63;2.38;;;;;;;1.57;100.00;102080.75;5049733;28;20179;-72
2023/12/27 09:03:53;;;;;;;12.48;2.33;;;;;;;1.60;100.00;102086.50;5051725;28;20425;-74
2023/12/27 09:06:19;;;;;;;10.63;2.40;;;;;;;1.62;100.00;102079.19;5051865;28;20513;-70
2023/12/27 09:08:45;;;;;;;12.73;2.50;;;;;;;1.65;100.00;102078.03;5070189;28;20903;-74
2023/12/27 09:11:11;;;;;;;6.70;1.77;;;;;;;1.67;100.00;102073.41;5054691;28;20035;-70
2023/12/27 09:13:36;;;;;;;9.25;2.40;;;;;;;1.68;100.00;102069.75;5080969;28;20028;-73
2023/12/27 09:16:03;;;;;;;14.23;1.90;;;;;;;1.73;100.00;102080.59;5063452;28;20039;-74
2023/12/27 09:18:29;;;;;;;8.35;2.47;;;;;;;1.77;100.00;102076.63;5067808;28;20032;-74
2023/12/27 09:20:55;;;;;;;9.30;2.72;;;;;;;1.80;100.00;102080.72;5032538;28;20032;-73
2023/12/27 09:26:13;;;;;;;8.95;2.13;;;;;;;1.81;100.00;102088.47;5047050;22;20726;-71
2023/12/27 09:28:38;;;;;;;8.98;1.70;;;;;;;1.82;100.00;102090.09;4999547;28;20029;-71
2023/12/27 09:31:04;;;;;;;6.55;1.98;;;;;;;1.85;100.00;102100.31;4969022;28;20032;-71
2023/12/27 09:33:30;;;;;;;9.25;1.92;;;;;;;1.85;100.00;102095.03;5006855;28;20113;-70
2023/12/27 09:35:56;;;;;;;9.55;2.38;;;;;;;1.89;100.00;102092.84;4986484;28;20487;-70
2023/12/27 09:38:21;;;;;;;15.00;2.55;;;;;;;1.86;100.00;102091.41;4989334;28;20411;-71
2023/12/27 09:40:48;;;;;;;12.40;2.30;;;;;;;1.85;100.00;102091.56;4965328;28;20129;-70
2023/12/27 09:43:15;;;;;;;12.77;2.47;;;;;;;1.87;100.00;102081.66;5005864;28;20037;-70
2023/12/27 09:45:41;;;;;;;8.95;1.55;;;;;;;1.88;100.00;102080.63;4981792;28;20038;-71
2023/12/27 09:48:11;;;;;;;7.85;1.77;;;;;;;1.88;100.00;102073.53;5001312;28;20045;-71
2023/12/27 09:50:40;;;;;;;8.57;1.83;;;;;;;1.90;100.00;102073.38;4967637;28;20096;-70
2023/12/27 09:53:10;;;;;;;8.70;1.70;;;;;;;1.90;100.00;102065.44;4967926;28;20038;-70
2023/12/27 09:55:36;;;;;;;7.90;2.35;;;;;;;1.90;100.00;102068.91;4981954;28;20034;-70
2023/12/27 09:58:04;;;;;;;8.40;2.20;;;;;;;1.91;100.00;102061.81;4987062;28;20037;-70
2023/12/27 10:00:32;;;;;;;7.60;1.90;;;;;;;1.95;100.00;102062.25;5005843;28;20034;-70
2023/12/27 10:03:03;;;;;;;9.85;1.90;;;;;;;1.99;100.00;102061.72;4986243;28;20069;-70
2023/12/27 10:05:45;;;;;;;6.63;1.90;;;;;;;2.02;100.00;102063.97;4992048;28;20546;-71
2023/12/27 10:08:11;;;;;;;5.85;1.92;;;;;;;2.02;100.00;102058.69;4985395;28;20080;-70
2023/12/27 10:10:38;;;;;;;5.07;1.40;;;;;;;2.05;100.00;102041.69;4995413;28;20026;-70
2023/12/27 10:13:04;;;;;;;9.80;1.60;;;;;;;2.10;100.00;102057.78;4985135;28;20044;-71
2023/12/27 10:15:29;;;;;;;11.00;2.13;;;;;;;2.13;100.00;102049.53;4980833;28;20045;-70
2023/12/27 10:17:55;;;;;;;8.55;2.67;;;;;;;2.18;100.00;102049.81;5003646;28;20125;-70
2023/12/27 10:20:36;;;;;;;11.30;2.28;;;;;;;2.18;100.00;102050.63;4999800;28;20038;-70
2023/12/27 10:23:03;;;;;;;10.80;2.47;;;;;;;2.23;100.00;102050.06;4976442;28;20033;-71
2023/12/27 10:25:29;;;;;;;7.03;1.63;;;;;;;2.27;100.00;102046.06;4986798;28;20095;-70
2023/12/27 10:27:55;;;;;;;8.70;1.95;;;;;;;2.24;100.00;102035.84;4971797;28;20510;-71
2023/12/27 10:30:21;;;;;;;5.90;1.90;;;;;;;2.30;100.00;102029.00;4968268;28;20037;-70
2023/12/27 10:33:01;;;;;;;10.43;2.05;;;;;;;2.32;100.00;102022.53;4969104;28;20121;-70
2023/12/27 10:35:27;;;;;;;11.52;2.30;;;;;;;2.36;100.00;102018.50;5001305;28;20084;-71
2023/12/27 10:38:05;;;;;;;12.65;2.53;;;;;;;2.37;100.00;102020.19;5002080;28;20065;-70
2023/12/27 10:40:33;;;;;;;6.30;1.90;;;;;;;2.38;100.00;102019.16;4984263;28;20100;-70
2023/12/27 10:42:58;;;;;;;6.78;2.15;;;;;;;2.40;100.00;102014.50;5002504;28;20038;-70
2023/12/27 10:45:25;;;;;;;11.27;2.35;;;;;;;2.45;100.00;102006.84;4975732;28;20030;-70
2023/12/27 10:48:05;;;;;;;9.25;2.10;;;;;;;2.45;100.00;102004.19;4960438;28;20036;-70
2023/12/27 10:50:32;;;;;;;9.77;2.10;;;;;;;2.49;100.00;101999.34;4974177;28;20049;-70
2023/12/27 10:53:02;;;;;;;10.35;2.28;;;;;;;2.49;100.00;101991.41;4980340;28;20473;-70
2023/12/27 10:55:30;;;;;;;6.55;1.70;;;;;;;2.53;100.00;101991.88;4982068;28;20042;-70
2023/12/27 10:57:58;;;;;;;7.50;1.80;;;;;;;2.55;100.00;101989.84;4979950;28;20038;-70
2023/12/27 11:00:25;;;;;;;7.20;1.92;;;;;;;2.53;100.00;101982.13;4988028;28;20056;-70
2023/12/27 11:02:51;;;;;;;10.27;2.38;;;;;;;2.54;100.00;101978.47;5002132;28;20034;-70
2023/12/27 11:05:19;;;;;;;11.75;2.00;;;;;;;2.59;100.00;101980.56;4994938;28;20367;-70
2023/12/27 11:07:45;;;;;;;9.05;2.08;;;;;;;2.61;100.00;101968.78;4999220;28;20378;-70
2023/12/27 11:10:16;;;;;;;7.03;2.30;;;;;;;2.62;100.00;101953.72;4981081;28;20041;-70
2023/12/27 11:12:45;;;;;;;9.75;2.60;;;;;;;2.61;100.00;101944.16;4966234;28;20037;-70
2023/12/27 11:15:13;;;;;;;12.55;2.50;;;;;;;2.62;100.00;101945.78;4984309;28;20038;-70
2023/12/27 11:17:39;;;;;;;9.85;2.25;;;;;;;2.61;100.00;101944.16;4982700;28;20433;-70
2023/12/27 11:20:08;;;;;;;9.77;2.47;;;;;;;2.62;100.00;101943.97;4981500;28;20089;-70
2023/12/27 11:22:34;;;;;;;7.07;2.13;;;;;;;2.64;100.00;101935.84;5000928;28;20045;-70